createdAt,value
2018-12-14T00:00:05.160Z,6.80
2018-12-14T00:02:33.441Z,6.80
2018-12-14T00:05:01.745Z,6.80
2018-12-14T00:07:30.071Z,6.80
2018-12-14T00:09:58.425Z,6.90
2018-12-14T00:12:26.772Z,7.00
2018-12-14T00:14:55.008Z,6.90
2018-12-14T00:17:23.336Z,6.80
2018-12-14T00:19:51.577Z,6.80
2018-12-14T00:22:19.848Z,6.80
2018-12-14T00:24:48.156Z,6.80
2018-12-14T00:27:16.930Z,6.80
2018-12-14T00:29:45.691Z,6.80
2018-12-14T00:32:14.807Z,6.80
2018-12-14T00:34:43.072Z,6.80
2018-12-14T00:37:11.343Z,6.80
2018-12-14T00:39:39.582Z,6.80
2018-12-14T00:42:08.509Z,6.80
2018-12-14T00:44:36.794Z,6.80
2018-12-14T00:47:05.131Z,6.80
2018-12-14T00:49:33.499Z,6.80
2018-12-14T00:52:01.880Z,6.80
2018-12-14T00:54:30.103Z,6.80
2018-12-14T00:56:58.379Z,6.80
2018-12-14T00:59:26.622Z,6.80
2018-12-14T01:01:54.980Z,6.90
2018-12-14T01:04:23.406Z,6.90
2018-12-14T01:06:51.717Z,6.80
2018-12-14T01:09:20.026Z,6.80
2018-12-14T01:11:48.282Z,6.80
2018-12-14T01:14:16.561Z,6.80
2018-12-14T01:16:44.856Z,6.80
2018-12-14T01:19:13.209Z,6.80
2018-12-14T01:21:41.501Z,6.80
2018-12-14T01:24:09.738Z,6.80
2018-12-14T01:26:38.144Z,6.80
2018-12-14T01:29:06.430Z,6.80
2018-12-14T01:31:34.728Z,6.90
2018-12-14T01:34:02.968Z,6.90
2018-12-14T01:36:31.253Z,6.90
2018-12-14T01:39:00.211Z,6.80
2018-12-14T01:41:28.480Z,6.80
2018-12-14T01:43:56.803Z,6.90
2018-12-14T01:46:25.152Z,6.90
2018-12-14T01:48:53.497Z,7.00
2018-12-14T01:51:21.796Z,7.00
2018-12-14T01:53:50.089Z,7.00
2018-12-14T01:56:18.593Z,6.90
2018-12-14T01:58:46.952Z,6.90
2018-12-14T02:01:15.180Z,6.90
2018-12-14T02:03:43.480Z,7.00
2018-12-14T02:06:11.833Z,7.00
2018-12-14T02:08:40.111Z,7.10
2018-12-14T02:11:08.407Z,7.00
2018-12-14T02:13:36.779Z,7.00
2018-12-14T02:16:05.285Z,7.00
2018-12-14T02:18:33.561Z,7.10
2018-12-14T02:21:01.828Z,7.10
2018-12-14T02:23:30.099Z,7.10
2018-12-14T02:25:58.539Z,7.10
2018-12-14T02:28:26.816Z,7.10
2018-12-14T02:30:55.096Z,7.00
2018-12-14T02:33:23.387Z,7.10
2018-12-14T02:35:51.687Z,7.10
2018-12-14T02:38:19.970Z,7.20
2018-12-14T02:40:48.414Z,7.20
2018-12-14T02:43:16.992Z,7.20
2018-12-14T02:45:45.305Z,7.20
2018-12-14T02:48:13.592Z,7.10
2018-12-14T02:50:41.906Z,7.10
2018-12-14T02:53:10.315Z,7.00
2018-12-14T02:55:40.209Z,7.00
2018-12-14T02:58:08.471Z,7.00
2018-12-14T03:00:36.761Z,6.90
2018-12-14T03:03:05.024Z,6.80
2018-12-14T03:05:33.335Z,6.80
2018-12-14T03:08:01.680Z,6.80
2018-12-14T03:10:30.095Z,6.70
2018-12-14T03:12:58.487Z,6.70
2018-12-14T03:15:26.870Z,6.70
2018-12-14T03:17:55.136Z,6.80
2018-12-14T03:20:23.883Z,6.80
2018-12-14T03:22:52.176Z,6.80
2018-12-14T03:25:20.398Z,6.70
2018-12-14T03:27:48.681Z,6.50
2018-12-14T03:30:17.661Z,6.50
2018-12-14T03:32:45.938Z,6.40
2018-12-14T03:35:14.196Z,6.00
2018-12-14T03:37:42.536Z,5.90
2018-12-14T03:40:10.806Z,6.00
2018-12-14T03:42:39.189Z,6.20
2018-12-14T03:45:07.636Z,6.30
2018-12-14T03:47:35.962Z,6.40
2018-12-14T03:50:04.453Z,6.30
2018-12-14T03:52:32.721Z,6.10
2018-12-14T03:55:01.052Z,6.00
2018-12-14T03:57:30.826Z,6.00
2018-12-14T03:59:59.896Z,6.10
2018-12-14T04:02:28.172Z,6.10
2018-12-14T04:04:56.453Z,6.20
2018-12-14T04:07:24.770Z,6.10
2018-12-14T04:09:53.060Z,6.20
2018-12-14T04:12:21.542Z,6.30
2018-12-14T04:14:50.631Z,6.40
2018-12-14T04:17:18.886Z,6.40
2018-12-14T04:19:47.146Z,6.50
2018-12-14T04:22:15.376Z,6.50
2018-12-14T04:24:43.640Z,6.60
2018-12-14T04:27:11.927Z,6.60
2018-12-14T04:29:40.953Z,6.60
2018-12-14T04:32:09.287Z,6.50
2018-12-14T04:34:37.581Z,6.50
2018-12-14T04:37:05.832Z,6.60
2018-12-14T04:39:34.101Z,6.50
2018-12-14T04:42:02.346Z,6.60
2018-12-14T04:44:30.674Z,6.50
2018-12-14T04:46:59.343Z,6.50
2018-12-14T04:49:27.891Z,6.50
2018-12-14T04:51:56.522Z,6.40
2018-12-14T04:54:25.067Z,6.40
2018-12-14T04:56:53.285Z,6.40
2018-12-14T04:59:21.536Z,6.40
2018-12-14T05:01:49.817Z,6.40
2018-12-14T05:04:18.082Z,6.50
2018-12-14T05:06:46.304Z,6.50
2018-12-14T05:09:14.544Z,6.50
2018-12-14T05:11:43.111Z,6.50
2018-12-14T05:14:11.907Z,6.50
2018-12-14T05:16:40.187Z,6.50
2018-12-14T05:19:08.408Z,6.50
2018-12-14T05:21:36.814Z,6.50
2018-12-14T05:24:05.075Z,6.50
2018-12-14T05:26:33.487Z,6.60
2018-12-14T05:29:01.746Z,6.60
2018-12-14T05:31:29.976Z,6.60
2018-12-14T05:33:58.305Z,6.60
2018-12-14T05:36:26.756Z,6.60
2018-12-14T05:38:55.094Z,6.60
2018-12-14T05:41:23.369Z,6.60
2018-12-14T05:43:52.649Z,6.50
2018-12-14T05:46:21.449Z,6.50
2018-12-14T05:48:49.710Z,6.50
2018-12-14T05:51:17.988Z,6.60
2018-12-14T05:53:46.246Z,6.50
2018-12-14T05:56:14.627Z,6.60
2018-12-14T05:58:42.897Z,6.60
2018-12-14T06:01:11.994Z,6.60
2018-12-14T06:03:40.257Z,6.60
2018-12-14T06:06:08.500Z,6.50
2018-12-14T06:08:36.782Z,6.50
2018-12-14T06:11:05.072Z,6.50
2018-12-14T06:13:33.303Z,6.50
2018-12-14T06:16:01.644Z,6.50
2018-12-14T06:18:29.938Z,6.50
2018-12-14T06:20:58.250Z,6.60
2018-12-14T06:23:26.591Z,6.60
2018-12-14T06:25:54.885Z,6.70
2018-12-14T06:28:23.894Z,6.70
2018-12-14T06:30:52.229Z,6.70
2018-12-14T06:33:20.561Z,6.70
2018-12-14T06:35:48.814Z,6.70
2018-12-14T06:38:17.315Z,6.70
2018-12-14T06:40:46.092Z,6.70
2018-12-14T06:43:15.606Z,6.70
2018-12-14T06:45:44.024Z,6.70
2018-12-14T06:48:12.360Z,6.70
2018-12-14T06:50:41.420Z,6.70
2018-12-14T06:53:10.251Z,6.60
2018-12-14T06:55:38.555Z,6.60
2018-12-14T06:58:07.150Z,6.70
2018-12-14T07:00:35.803Z,6.60
2018-12-14T07:03:04.370Z,6.50
2018-12-14T07:05:32.894Z,6.50
2018-12-14T07:08:01.730Z,6.50
2018-12-14T07:10:30.519Z,6.50
2018-12-14T07:12:59.205Z,6.60
2018-12-14T07:15:28.070Z,6.70
2018-12-14T07:17:56.653Z,6.60
2018-12-14T07:20:25.239Z,6.50
2018-12-14T07:22:53.816Z,6.40
2018-12-14T07:25:22.598Z,6.30
2018-12-14T07:27:51.230Z,6.40
2018-12-14T07:30:20.093Z,6.50
2018-12-14T07:32:48.743Z,6.50
2018-12-14T07:35:17.974Z,6.50
2018-12-14T07:37:47.083Z,6.50
2018-12-14T07:40:16.142Z,6.50
2018-12-14T07:42:47.364Z,6.50
2018-12-14T07:45:16.408Z,6.50
2018-12-14T07:47:44.751Z,6.50
2018-12-14T07:50:14.319Z,6.50
2018-12-14T07:52:47.665Z,6.60
2018-12-14T07:55:15.999Z,6.60
2018-12-14T07:57:45.628Z,6.70
2018-12-14T08:03:13.080Z,6.70
2018-12-14T08:05:41.851Z,6.80
2018-12-14T08:11:20.936Z,6.80
2018-12-14T08:19:59.926Z,6.60
2018-12-14T08:22:42.060Z,6.70
2018-12-14T08:25:11.630Z,6.80
2018-12-14T08:27:39.912Z,6.90
2018-12-14T08:30:08.691Z,6.90
2018-12-14T08:32:36.951Z,6.90
2018-12-14T08:35:05.640Z,6.90
2018-12-14T08:37:34.006Z,7.00
2018-12-14T08:40:02.321Z,7.00
2018-12-14T08:42:30.555Z,7.00
2018-12-14T08:44:58.901Z,7.10
2018-12-14T08:47:27.194Z,7.10
2018-12-14T08:49:55.758Z,7.00
2018-12-14T08:52:30.942Z,7.10
2018-12-14T08:54:59.265Z,7.00
2018-12-14T08:57:27.576Z,7.00
2018-12-14T08:59:55.943Z,7.00
2018-12-14T09:02:24.243Z,7.00
2018-12-14T09:04:52.580Z,7.10
2018-12-14T09:07:24.603Z,7.20
2018-12-14T09:09:51.166Z,7.20
2018-12-14T09:12:19.556Z,7.20
2018-12-14T09:14:47.847Z,7.20
2018-12-14T09:17:16.135Z,7.20
2018-12-14T09:19:44.417Z,7.30
2018-12-14T09:22:12.772Z,7.30
2018-12-14T09:27:15.684Z,7.40
2018-12-14T09:29:44.013Z,7.30
2018-12-14T09:32:12.310Z,7.40
2018-12-14T09:34:40.812Z,7.30
2018-12-14T09:37:09.175Z,7.20
2018-12-14T09:39:37.437Z,7.30
2018-12-14T09:42:05.783Z,7.20
2018-12-14T09:44:34.090Z,7.30
2018-12-14T09:47:02.497Z,7.30
2018-12-14T09:49:30.824Z,7.30
2018-12-14T09:51:59.283Z,7.30
2018-12-14T09:54:27.586Z,7.30
2018-12-14T09:56:55.835Z,7.30
2018-12-14T09:59:24.118Z,7.30
2018-12-14T10:01:52.386Z,7.20
2018-12-14T10:04:20.635Z,7.20
2018-12-14T10:06:48.930Z,7.30
2018-12-14T10:09:17.210Z,7.30
2018-12-14T10:11:45.570Z,7.30
2018-12-14T10:14:13.838Z,7.30
2018-12-14T10:16:42.086Z,7.20
2018-12-14T10:19:10.431Z,7.10
2018-12-14T10:21:38.704Z,7.20
2018-12-14T10:24:06.961Z,7.20
2018-12-14T10:26:35.279Z,7.30
2018-12-14T10:29:03.548Z,7.30
2018-12-14T10:31:31.805Z,7.40
2018-12-14T10:34:00.046Z,7.40
2018-12-14T10:36:28.344Z,7.40
2018-12-14T10:38:56.615Z,7.40
2018-12-14T10:41:24.897Z,7.40
2018-12-14T10:43:53.125Z,7.40
2018-12-14T10:46:21.402Z,7.40
2018-12-14T10:48:49.689Z,7.50
2018-12-14T10:51:17.981Z,7.40
2018-12-14T10:53:46.350Z,7.40
2018-12-14T10:56:14.609Z,7.40
2018-12-14T10:58:42.882Z,7.40
2018-12-14T11:02:15.158Z,7.40
2018-12-14T11:04:43.438Z,7.50
2018-12-14T11:07:11.923Z,7.60
2018-12-14T11:09:40.349Z,7.60
2018-12-14T11:12:08.812Z,7.70
2018-12-14T11:14:37.083Z,7.70
2018-12-14T11:17:05.408Z,7.70
2018-12-14T11:19:33.949Z,7.60
2018-12-14T11:22:02.231Z,7.60
2018-12-14T11:24:33.334Z,7.60
2018-12-14T11:27:02.493Z,7.60
2018-12-14T11:29:30.776Z,7.60
2018-12-14T11:31:59.047Z,7.60
2018-12-14T11:34:29.935Z,7.60
2018-12-14T11:37:00.169Z,7.60
2018-12-14T11:39:28.419Z,7.50
2018-12-14T11:41:56.675Z,7.50
2018-12-14T11:44:24.941Z,7.40
2018-12-14T11:46:53.211Z,7.50
2018-12-14T11:49:21.435Z,7.50
2018-12-14T11:51:49.841Z,7.50
2018-12-14T11:54:18.149Z,7.60
2018-12-14T11:56:46.490Z,7.60
2018-12-14T11:59:14.850Z,7.60
2018-12-14T12:01:43.167Z,7.50
2018-12-14T12:04:11.415Z,7.50
2018-12-14T12:06:40.043Z,7.50
2018-12-14T12:09:11.245Z,7.50
2018-12-14T12:11:39.495Z,7.40
2018-12-14T12:14:07.783Z,7.30
2018-12-14T12:16:36.067Z,7.30
2018-12-14T12:19:04.365Z,7.30
2018-12-14T12:21:32.934Z,7.30
2018-12-14T12:24:01.318Z,7.40
2018-12-14T12:26:29.561Z,7.40
2018-12-14T12:28:57.823Z,7.40
2018-12-14T12:31:26.175Z,7.40
2018-12-14T12:33:54.440Z,7.50
2018-12-14T12:36:22.674Z,7.50
2018-12-14T12:38:50.998Z,7.30
2018-12-14T12:41:19.292Z,7.30
2018-12-14T12:43:47.639Z,7.30
2018-12-14T12:46:15.873Z,7.40
2018-12-14T12:48:44.544Z,7.60
2018-12-14T12:51:12.800Z,7.70
2018-12-14T12:53:41.058Z,7.70
2018-12-14T12:56:09.508Z,7.70
2018-12-14T12:58:37.734Z,7.70
2018-12-14T13:01:12.765Z,7.50
2018-12-14T13:03:41.019Z,7.50
2018-12-14T13:06:09.318Z,7.40
2018-12-14T13:08:37.552Z,7.20
2018-12-14T13:11:05.826Z,7.20
2018-12-14T13:13:34.057Z,7.10
2018-12-14T13:16:02.399Z,7.20
2018-12-14T13:18:30.751Z,7.10
2018-12-14T13:20:59.044Z,7.00
2018-12-14T13:23:27.378Z,7.00
2018-12-14T13:25:55.659Z,7.00
2018-12-14T13:28:24.149Z,7.00
2018-12-14T13:30:52.433Z,7.00
2018-12-14T13:33:21.156Z,7.00
2018-12-14T13:35:49.526Z,7.00
2018-12-14T13:38:17.817Z,7.10
2018-12-14T13:40:46.179Z,7.10
2018-12-14T13:43:14.563Z,7.10
2018-12-14T13:45:42.809Z,7.10
2018-12-14T13:48:11.205Z,7.10
2018-12-14T13:50:39.672Z,7.10
2018-12-14T13:53:08.056Z,7.10
2018-12-14T13:55:36.308Z,7.10
2018-12-14T13:58:04.613Z,7.10
2018-12-14T14:00:32.918Z,7.10
2018-12-14T14:03:01.289Z,7.10
2018-12-14T14:05:29.727Z,7.10
2018-12-14T14:07:58.056Z,7.10
2018-12-14T14:10:26.372Z,7.00
2018-12-14T14:12:54.667Z,7.00
2018-12-14T14:15:23.027Z,6.90
2018-12-14T14:17:51.375Z,6.90
2018-12-14T14:20:19.673Z,6.90
2018-12-14T14:22:48.173Z,7.00
2018-12-14T14:25:17.708Z,7.00
2018-12-14T14:27:46.224Z,6.90
2018-12-14T14:30:14.483Z,6.90
2018-12-14T14:32:42.872Z,6.90
2018-12-14T14:35:11.304Z,6.70
2018-12-14T14:37:39.681Z,6.60
2018-12-14T14:40:08.211Z,6.70
2018-12-14T14:42:36.498Z,6.60
2018-12-14T14:45:05.237Z,6.60
2018-12-14T14:47:33.581Z,6.70
2018-12-14T14:50:02.143Z,6.70
2018-12-14T14:52:30.429Z,6.80
2018-12-14T14:54:58.779Z,6.80
2018-12-14T14:57:27.276Z,6.80
2018-12-14T14:59:55.563Z,6.80
2018-12-14T15:02:23.795Z,6.80
2018-12-14T15:04:52.095Z,6.80
2018-12-14T15:07:20.796Z,6.70
2018-12-14T15:09:49.172Z,6.70
2018-12-14T15:12:17.423Z,6.70
2018-12-14T15:14:45.657Z,6.70
2018-12-14T15:17:13.985Z,6.70
2018-12-14T15:19:42.244Z,6.60
2018-12-14T15:22:10.527Z,6.60
2018-12-14T15:24:38.841Z,6.50
2018-12-14T15:27:07.226Z,6.60
2018-12-14T15:29:35.509Z,6.70
2018-12-14T15:32:03.866Z,6.70
2018-12-14T15:34:32.182Z,6.70
2018-12-14T15:37:00.453Z,6.70
2018-12-14T15:39:28.813Z,6.70
2018-12-14T15:41:57.047Z,6.80
2018-12-14T15:44:25.321Z,6.80
2018-12-14T15:46:53.747Z,6.80
2018-12-14T15:49:22.047Z,6.80
2018-12-14T15:51:50.465Z,6.80
2018-12-14T15:54:18.798Z,6.90
2018-12-14T15:56:47.081Z,6.90
2018-12-14T15:59:15.391Z,6.80
2018-12-14T16:01:43.637Z,6.80
2018-12-14T16:04:11.932Z,6.70
2018-12-14T16:06:40.267Z,6.70
2018-12-14T16:09:08.673Z,6.70
2018-12-14T16:11:37.109Z,6.60
2018-12-14T16:14:05.674Z,6.60
2018-12-14T16:16:34.188Z,6.70
2018-12-14T16:19:02.646Z,6.80
2018-12-14T16:21:31.007Z,6.90
2018-12-14T16:23:59.427Z,6.90
2018-12-14T16:26:27.696Z,6.90
2018-12-14T16:28:55.993Z,6.90
2018-12-14T16:31:24.241Z,6.90
2018-12-14T16:33:52.742Z,6.90
2018-12-14T16:36:21.124Z,6.90
2018-12-14T16:38:49.375Z,6.90
2018-12-14T16:41:17.647Z,6.90
2018-12-14T16:43:46.002Z,6.90
2018-12-14T16:46:14.292Z,6.90
2018-12-14T16:48:42.672Z,6.90
2018-12-14T16:51:10.958Z,7.00
2018-12-14T16:53:44.733Z,7.00
2018-12-14T16:56:13.267Z,7.00
2018-12-14T16:58:41.537Z,6.90
2018-12-14T17:01:09.821Z,6.90
2018-12-14T17:03:38.092Z,6.90
2018-12-14T17:06:06.522Z,7.00
2018-12-14T17:08:34.802Z,7.00
2018-12-14T17:11:03.104Z,7.10
2018-12-14T17:13:31.392Z,7.10
2018-12-14T17:15:59.683Z,7.10
2018-12-14T17:18:27.917Z,7.10
2018-12-14T17:20:56.337Z,7.10
2018-12-14T17:23:24.660Z,7.20
2018-12-14T17:25:52.887Z,7.20
2018-12-14T17:28:21.147Z,7.20
2018-12-14T17:30:49.477Z,7.20
2018-12-14T17:33:17.768Z,7.20
2018-12-14T17:35:46.048Z,7.20
2018-12-14T17:38:14.473Z,7.10
2018-12-14T17:40:42.775Z,7.10
2018-12-14T17:43:11.128Z,7.10
2018-12-14T17:45:39.994Z,7.10
2018-12-14T17:48:08.527Z,7.10
2018-12-14T17:50:36.925Z,7.10
2018-12-14T17:53:05.339Z,7.20
2018-12-14T17:55:33.621Z,7.20
2018-12-14T17:58:02.003Z,7.20
2018-12-14T18:00:30.352Z,7.10
2018-12-14T18:02:58.726Z,7.20
2018-12-14T18:05:26.986Z,7.10
2018-12-14T18:07:55.290Z,7.20
2018-12-14T18:10:23.530Z,7.20
2018-12-14T18:12:51.859Z,7.20
2018-12-14T18:15:20.342Z,7.20
2018-12-14T18:17:48.733Z,7.20
2018-12-14T18:20:17.050Z,7.20
2018-12-14T18:22:45.551Z,7.10
2018-12-14T18:25:14.229Z,7.10
2018-12-14T18:27:42.536Z,7.10
2018-12-14T18:30:10.951Z,7.10
2018-12-14T18:32:39.201Z,7.10
2018-12-14T18:35:08.067Z,7.10
2018-12-14T18:37:36.437Z,7.10
2018-12-14T18:40:06.220Z,7.20
2018-12-14T18:42:34.493Z,7.10
2018-12-14T18:45:02.791Z,7.10
2018-12-14T18:47:31.048Z,7.10
2018-12-14T18:49:59.319Z,7.10
2018-12-14T18:52:27.674Z,7.10
2018-12-14T18:54:55.967Z,7.10
2018-12-14T18:57:24.250Z,7.10
2018-12-14T18:59:52.532Z,7.10
2018-12-14T19:02:20.831Z,7.10
2018-12-14T19:04:49.126Z,7.10
2018-12-14T19:07:17.375Z,7.00
2018-12-14T19:09:45.737Z,7.00
2018-12-14T19:12:14.107Z,7.00
2018-12-14T19:14:42.383Z,7.00
2018-12-14T19:17:10.683Z,7.00
2018-12-14T19:19:38.925Z,7.00
2018-12-14T19:22:08.211Z,7.00
2018-12-14T19:24:36.469Z,7.00
2018-12-14T19:27:04.775Z,7.00
2018-12-14T19:29:33.070Z,7.00
2018-12-14T19:32:01.315Z,7.00
2018-12-14T19:34:31.507Z,7.00
2018-12-14T19:36:59.829Z,7.00
2018-12-14T19:39:28.349Z,6.90
2018-12-14T19:41:56.598Z,6.90
2018-12-14T19:44:26.171Z,6.90
2018-12-14T19:46:54.414Z,6.90
2018-12-14T19:49:22.731Z,7.00
2018-12-14T19:51:51.037Z,7.00
2018-12-14T19:54:19.688Z,7.00
2018-12-14T19:56:48.260Z,7.00
2018-12-14T19:59:16.503Z,7.00
2018-12-14T20:01:44.751Z,7.00
2018-12-14T20:04:13.152Z,7.00
2018-12-14T20:06:41.475Z,7.00
2018-12-14T20:09:09.810Z,7.00
2018-12-14T20:11:38.215Z,7.00
2018-12-14T20:14:06.573Z,6.90
2018-12-14T20:16:34.918Z,6.90
2018-12-14T20:19:03.221Z,6.90
2018-12-14T20:21:31.531Z,6.80
2018-12-14T20:23:59.763Z,6.70
2018-12-14T20:26:28.038Z,6.60
2018-12-14T20:28:56.348Z,6.50
2018-12-14T20:31:24.604Z,6.30
2018-12-14T20:33:52.887Z,6.10
2018-12-14T20:36:21.242Z,6.10
2018-12-14T20:38:49.496Z,6.10
2018-12-14T20:41:17.750Z,6.10
2018-12-14T20:43:46.038Z,6.10
2018-12-14T20:46:19.306Z,6.00
2018-12-14T20:48:44.547Z,6.00
2018-12-14T20:51:12.817Z,6.00
2018-12-14T20:53:41.124Z,6.10
2018-12-14T20:56:09.444Z,6.10
2018-12-14T20:58:37.716Z,6.10
2018-12-14T21:01:06.057Z,6.10
2018-12-14T21:03:34.307Z,6.10
2018-12-14T21:06:02.575Z,6.00
2018-12-14T21:08:30.907Z,6.00
2018-12-14T21:10:59.226Z,5.90
2018-12-14T21:13:27.503Z,5.90
2018-12-14T21:15:55.762Z,5.90
2018-12-14T21:18:24.074Z,6.00
2018-12-14T21:20:52.368Z,6.00
2018-12-14T21:23:20.709Z,5.90
2018-12-14T21:25:48.981Z,5.90
2018-12-14T21:28:17.233Z,5.80
2018-12-14T21:30:45.512Z,5.70
2018-12-14T21:33:13.812Z,5.70
2018-12-14T21:35:42.071Z,5.70
2018-12-14T21:38:10.421Z,5.60
2018-12-14T21:40:38.682Z,5.70
2018-12-14T21:43:06.958Z,5.80
2018-12-14T21:45:35.229Z,5.80
2018-12-14T21:48:03.485Z,5.70
2018-12-14T21:50:31.709Z,5.80
2018-12-14T21:52:59.956Z,5.80
2018-12-14T21:55:29.080Z,5.80
2018-12-14T21:57:57.659Z,5.90
2018-12-14T22:00:25.965Z,5.90
2018-12-14T22:02:54.323Z,5.90
2018-12-14T22:05:22.601Z,5.80
2018-12-14T22:07:50.887Z,5.90
2018-12-14T22:10:19.153Z,5.90
2018-12-14T22:12:47.520Z,5.90
2018-12-14T22:15:15.828Z,6.00
2018-12-14T22:17:44.099Z,6.00
2018-12-14T22:20:12.440Z,6.00
2018-12-14T22:22:40.889Z,6.10
2018-12-14T22:25:09.208Z,6.00
2018-12-14T22:27:37.481Z,6.00
2018-12-14T22:30:06.546Z,6.00
2018-12-14T22:32:35.095Z,6.00
2018-12-14T22:35:03.629Z,5.90
2018-12-14T22:37:31.919Z,5.90
2018-12-14T22:40:00.340Z,5.80
2018-12-14T22:42:28.621Z,5.90
2018-12-14T22:44:56.865Z,5.90
2018-12-14T22:47:25.131Z,5.90
2018-12-14T22:49:53.376Z,5.90
2018-12-14T22:52:21.656Z,5.90
2018-12-14T22:54:49.954Z,6.00
2018-12-14T22:57:18.246Z,6.00
2018-12-14T22:59:46.490Z,6.10
2018-12-14T23:02:14.749Z,6.00
2018-12-14T23:04:42.977Z,6.10
2018-12-14T23:07:11.263Z,6.10
2018-12-14T23:09:39.488Z,6.10
2018-12-14T23:12:07.853Z,6.00
2018-12-14T23:14:36.077Z,6.10
2018-12-14T23:17:04.307Z,6.00
2018-12-14T23:19:32.603Z,6.00
2018-12-14T23:22:00.875Z,6.00
2018-12-14T23:24:29.243Z,6.10
2018-12-14T23:26:57.541Z,6.00
2018-12-14T23:29:25.793Z,6.00
2018-12-14T23:31:54.109Z,6.00
2018-12-14T23:34:22.448Z,6.10
2018-12-14T23:36:50.725Z,6.00
2018-12-14T23:39:19.036Z,6.00
2018-12-14T23:41:47.343Z,6.00
2018-12-14T23:44:15.608Z,6.00
2018-12-14T23:46:43.849Z,5.90
2018-12-14T23:49:12.174Z,5.90
2018-12-14T23:51:40.418Z,5.90
2018-12-14T23:54:16.070Z,6.00
2018-12-14T23:56:44.316Z,5.90
2018-12-14T23:59:12.616Z,5.90
